Time;durP1;ratioP1;P1;durP2;ratioP2;P2;SDS_P1;SDS_P2;PMS_P1;PMS_P2;Temp;Humidity;BMP_temperature;BMP_pressure;BME280_temperature;BME280_humidity;BME280_pressure;Samples;Min_cycle;Max_cycle;Signal;HPM_P1;HPM_P2
2022/05/06 00:00:10;;;;;;;;;11.25;6.50;;;;;;;;5102881;27;62171;-89
2022/05/06 00:02:35;;;;;;;;;8.50;8.50;;;;;;;;5102166;27;63115;-89
2022/05/06 00:05:00;;;;;;;;;8.25;7.00;;;;;;;;5102016;27;61613;-89
2022/05/06 00:07:27;;;;;;;;;10.00;9.50;;;;;;;;5101214;27;62270;-89
2022/05/06 00:09:53;;;;;;;;;11.75;9.00;;;;;;;;5102205;27;61882;-89
2022/05/06 00:12:19;;;;;;;;;11.00;7.75;;;;;;;;5101511;27;61953;-89
2022/05/06 00:14:45;;;;;;;;;15.50;11.00;;;;;;;;5100624;27;61848;-90
2022/05/06 00:17:10;;;;;;;;;9.50;9.00;;;;;;;;5102678;27;61855;-89
2022/05/06 00:19:36;;;;;;;;;14.50;11.00;;;;;;;;5102825;27;61984;-89
2022/05/06 00:22:01;;;;;;;;;12.50;7.00;;;;;;;;5101517;27;61937;-89
2022/05/06 00:24:28;;;;;;;;;13.75;9.00;;;;;;;;5102159;27;61848;-89
2022/05/06 00:26:54;;;;;;;;;7.50;7.25;;;;;;;;5101965;27;61853;-89
2022/05/06 00:29:19;;;;;;;;;8.00;8.00;;;;;;;;5101005;27;61816;-88
2022/05/06 00:31:44;;;;;;;;;10.25;8.25;;;;;;;;5101926;27;62478;-88
2022/05/06 00:34:10;;;;;;;;;8.50;7.00;;;;;;;;5101905;27;61751;-88
2022/05/06 00:36:36;;;;;;;;;16.50;7.75;;;;;;;;5102647;27;62079;-89
2022/05/06 00:39:01;;;;;;;;;10.25;9.50;;;;;;;;5102086;27;62224;-88
2022/05/06 00:41:26;;;;;;;;;11.50;10.00;;;;;;;;5101477;27;61788;-88
2022/05/06 00:43:52;;;;;;;;;9.25;7.00;;;;;;;;5102227;27;61952;-87
2022/05/06 00:46:17;;;;;;;;;8.75;8.50;;;;;;;;5102147;27;62150;-88
2022/05/06 00:48:46;;;;;;;;;9.75;8.25;;;;;;;;5103016;27;61772;-87
2022/05/06 00:51:12;;;;;;;;;8.25;7.00;;;;;;;;5103538;27;62675;-88
2022/05/06 00:53:39;;;;;;;;;11.00;8.00;;;;;;;;5103798;27;61818;-88
2022/05/06 00:56:04;;;;;;;;;10.00;7.00;;;;;;;;5103497;27;61891;-88
2022/05/06 00:58:31;;;;;;;;;9.25;6.50;;;;;;;;5105556;27;61917;-88
2022/05/06 01:00:56;;;;;;;;;7.75;7.25;;;;;;;;5103535;27;62381;-89
2022/05/06 01:03:22;;;;;;;;;6.75;6.50;;;;;;;;5104915;27;61898;-89
2022/05/06 01:05:49;;;;;;;;;12.25;9.00;;;;;;;;5103946;27;61833;-88
2022/05/06 01:08:15;;;;;;;;;13.50;9.00;;;;;;;;5104859;27;61979;-89
2022/05/06 01:10:41;;;;;;;;;19.25;12.75;;;;;;;;5102603;27;64918;-88
2022/05/06 01:13:07;;;;;;;;;13.50;10.50;;;;;;;;5105250;27;61835;-88
2022/05/06 01:15:32;;;;;;;;;11.00;9.25;;;;;;;;5105298;27;61817;-89
2022/05/06 01:17:58;;;;;;;;;9.50;9.50;;;;;;;;5103972;27;62195;-89
2022/05/06 01:20:24;;;;;;;;;15.00;11.75;;;;;;;;5102791;27;63638;-88
2022/05/06 01:22:50;;;;;;;;;11.50;10.25;;;;;;;;5103673;27;62000;-90
2022/05/06 01:25:16;;;;;;;;;16.25;10.75;;;;;;;;5104262;27;62011;-90
2022/05/06 01:28:03;;;;;;;;;12.00;10.25;;;;;;;;5105214;27;61953;-89
2022/05/06 01:30:31;;;;;;;;;12.75;9.50;;;;;;;;5103574;27;62966;-90
2022/05/06 01:32:58;;;;;;;;;15.50;14.25;;;;;;;;5103581;27;61908;-89
2022/05/06 01:35:25;;;;;;;;;11.75;9.25;;;;;;;;5104889;27;61769;-89
2022/05/06 01:37:52;;;;;;;;;14.50;12.00;;;;;;;;5103197;27;62125;-89
2022/05/06 01:40:18;;;;;;;;;10.50;9.00;;;;;;;;5103325;27;61933;-90
2022/05/06 01:42:44;;;;;;;;;16.50;9.25;;;;;;;;5104844;27;62127;-90
2022/05/06 01:45:13;;;;;;;;;16.50;10.00;;;;;;;;5104785;27;61964;-89
2022/05/06 01:47:38;;;;;;;;;12.00;9.50;;;;;;;;5104929;27;61978;-90
2022/05/06 01:50:04;;;;;;;;;14.25;12.00;;;;;;;;5102427;27;63799;-85
2022/05/06 01:52:30;;;;;;;;;13.50;10.25;;;;;;;;5104149;27;61732;-90
2022/05/06 01:54:56;;;;;;;;;15.25;10.75;;;;;;;;5103238;27;61899;-88
2022/05/06 01:57:21;;;;;;;;;11.75;9.25;;;;;;;;5102388;27;62191;-90
2022/05/06 01:59:47;;;;;;;;;15.75;10.25;;;;;;;;5102889;27;61990;-90
2022/05/06 02:02:12;;;;;;;;;11.75;10.75;;;;;;;;5102858;27;61870;-90
2022/05/06 02:07:21;;;;;;;;;13.75;12.00;;;;;;;;5109067;27;61834;-89
2022/05/06 02:09:47;;;;;;;;;10.75;9.00;;;;;;;;5108564;27;63303;-90
2022/05/06 02:12:12;;;;;;;;;15.75;12.00;;;;;;;;5103794;27;61806;-90
2022/05/06 02:14:37;;;;;;;;;12.00;9.00;;;;;;;;5103303;27;61832;-89
2022/05/06 02:17:03;;;;;;;;;14.25;11.00;;;;;;;;5103759;27;62046;-90
2022/05/06 02:19:29;;;;;;;;;18.50;11.50;;;;;;;;5103211;27;62093;-90
2022/05/06 02:21:54;;;;;;;;;14.00;12.25;;;;;;;;5103642;27;61829;-90
2022/05/06 02:24:20;;;;;;;;;16.25;12.50;;;;;;;;5101479;27;62030;-90
2022/05/06 02:26:45;;;;;;;;;15.00;10.25;;;;;;;;5103265;27;62344;-90
2022/05/06 02:29:10;;;;;;;;;14.75;11.25;;;;;;;;5099892;27;62046;-83
2022/05/06 02:34:20;;;;;;;;;12.50;9.75;;;;;;;;5101862;27;61747;-89
2022/05/06 02:36:45;;;;;;;;;12.00;11.25;;;;;;;;5102548;27;62116;-89
2022/05/06 02:39:11;;;;;;;;;12.25;10.25;;;;;;;;5100352;27;63132;-84
2022/05/06 02:41:36;;;;;;;;;15.50;12.75;;;;;;;;5101912;27;61742;-85
2022/05/06 02:44:04;;;;;;;;;15.25;14.00;;;;;;;;5102058;27;61865;-87
2022/05/06 02:46:35;;;;;;;;;14.50;14.50;;;;;;;;5102471;27;62222;-89
2022/05/06 02:49:01;;;;;;;;;25.25;17.00;;;;;;;;5101412;27;62703;-88
2022/05/06 02:51:28;;;;;;;;;10.50;10.25;;;;;;;;5100679;27;62400;-89
2022/05/06 02:53:54;;;;;;;;;18.50;12.75;;;;;;;;5101242;27;62082;-89
2022/05/06 02:56:19;;;;;;;;;15.00;12.75;;;;;;;;5102087;27;61883;-85
2022/05/06 02:58:44;;;;;;;;;12.75;12.00;;;;;;;;5101402;27;63528;-85
2022/05/06 03:01:11;;;;;;;;;17.75;16.00;;;;;;;;5100605;27;61967;-89
2022/05/06 03:03:36;;;;;;;;;14.75;12.00;;;;;;;;5099782;27;62028;-88
2022/05/06 03:06:01;;;;;;;;;17.50;16.00;;;;;;;;5101439;27;62063;-89
2022/05/06 03:08:27;;;;;;;;;18.25;13.00;;;;;;;;5101496;27;61975;-88
2022/05/06 03:10:52;;;;;;;;;18.25;11.00;;;;;;;;5102316;27;62005;-89
2022/05/06 03:13:17;;;;;;;;;18.50;14.50;;;;;;;;5102724;27;61912;-90
2022/05/06 03:15:43;;;;;;;;;16.75;14.25;;;;;;;;5101188;27;62465;-91
2022/05/06 03:18:09;;;;;;;;;12.50;10.50;;;;;;;;5100728;27;64084;-89
2022/05/06 03:20:34;;;;;;;;;16.50;12.00;;;;;;;;5102019;27;61802;-89
2022/05/06 03:22:59;;;;;;;;;21.25;13.00;;;;;;;;5101780;27;63028;-89
2022/05/06 03:25:25;;;;;;;;;15.50;10.50;;;;;;;;5103143;27;61773;-89
2022/05/06 03:27:59;;;;;;;;;20.00;12.25;;;;;;;;5102138;27;62012;-89
2022/05/06 03:30:27;;;;;;;;;13.50;11.00;;;;;;;;5095126;27;61680;-89
2022/05/06 03:32:55;;;;;;;;;15.50;11.25;;;;;;;;5102942;27;61987;-89
2022/05/06 03:35:20;;;;;;;;;16.50;13.75;;;;;;;;5102721;27;61941;-89
2022/05/06 03:37:45;;;;;;;;;21.50;12.50;;;;;;;;5101645;27;61757;-88
2022/05/06 03:40:11;;;;;;;;;11.25;9.75;;;;;;;;5102748;27;61673;-89
2022/05/06 03:42:37;;;;;;;;;14.50;11.75;;;;;;;;5102978;27;61869;-89
2022/05/06 03:45:03;;;;;;;;;16.75;12.00;;;;;;;;5103067;27;61699;-89
2022/05/06 03:47:28;;;;;;;;;14.75;12.25;;;;;;;;5102294;27;61992;-89
2022/05/06 03:52:38;;;;;;;;;15.50;11.00;;;;;;;;5102905;27;61903;-89
2022/05/06 03:55:03;;;;;;;;;13.00;12.00;;;;;;;;5102444;27;61877;-90
2022/05/06 03:57:28;;;;;;;;;18.00;13.25;;;;;;;;5102349;27;61839;-90
2022/05/06 03:59:54;;;;;;;;;18.75;12.25;;;;;;;;5102436;27;61965;-90
2022/05/06 04:02:20;;;;;;;;;14.25;11.75;;;;;;;;5102667;27;61714;-89
2022/05/06 04:04:45;;;;;;;;;15.00;15.00;;;;;;;;5102239;27;62130;-90
2022/05/06 04:07:10;;;;;;;;;16.00;12.00;;;;;;;;5100739;27;63305;-89
2022/05/06 04:09:35;;;;;;;;;16.00;13.00;;;;;;;;5101522;27;61938;-89
2022/05/06 04:12:01;;;;;;;;;10.25;9.50;;;;;;;;5102564;27;61997;-89
2022/05/06 04:14:26;;;;;;;;;15.75;14.50;;;;;;;;5102477;27;61743;-90
2022/05/06 04:16:51;;;;;;;;;15.00;13.25;;;;;;;;5101729;27;61755;-89
2022/05/06 04:19:17;;;;;;;;;15.25;13.00;;;;;;;;5100661;27;62361;-89
2022/05/06 04:24:26;;;;;;;;;16.00;13.25;;;;;;;;5102320;27;61991;-89
2022/05/06 04:26:51;;;;;;;;;16.50;14.25;;;;;;;;5103603;27;63792;-89
2022/05/06 04:29:17;;;;;;;;;12.25;8.75;;;;;;;;5105571;27;62231;-88
2022/05/06 04:31:42;;;;;;;;;12.00;12.00;;;;;;;;5104818;27;61981;-88
2022/05/06 04:34:07;;;;;;;;;20.75;14.00;;;;;;;;5105540;27;62170;-88
2022/05/06 04:36:33;;;;;;;;;22.75;13.00;;;;;;;;5105116;27;61810;-89
2022/05/06 04:38:58;;;;;;;;;17.00;10.50;;;;;;;;5103611;27;61876;-89
2022/05/06 04:41:24;;;;;;;;;20.75;14.75;;;;;;;;5103376;27;61841;-89
2022/05/06 04:43:49;;;;;;;;;14.25;11.50;;;;;;;;5105692;27;61937;-89
2022/05/06 04:46:15;;;;;;;;;19.50;16.25;;;;;;;;5105026;27;62758;-89
2022/05/06 04:48:40;;;;;;;;;12.50;12.50;;;;;;;;5103974;27;61886;-89
2022/05/06 04:51:05;;;;;;;;;10.75;7.75;;;;;;;;5105683;27;61940;-90
2022/05/06 04:53:31;;;;;;;;;13.25;9.25;;;;;;;;5106018;27;61850;-89
2022/05/06 04:55:56;;;;;;;;;18.00;14.25;;;;;;;;5103664;27;64230;-90
2022/05/06 04:58:22;;;;;;;;;13.00;12.00;;;;;;;;5105434;27;62060;-90
2022/05/06 05:00:47;;;;;;;;;15.25;11.25;;;;;;;;5104293;27;61842;-89
2022/05/06 05:03:12;;;;;;;;;12.75;12.75;;;;;;;;5104951;27;62159;-90
2022/05/06 05:05:38;;;;;;;;;19.00;13.50;;;;;;;;5103243;27;63712;-90
2022/05/06 05:08:03;;;;;;;;;19.25;15.25;;;;;;;;5104823;27;62096;-89
2022/05/06 05:10:29;;;;;;;;;20.75;11.75;;;;;;;;5103622;27;62026;-89
2022/05/06 05:12:54;;;;;;;;;16.50;12.00;;;;;;;;5105744;27;61791;-90
2022/05/06 05:15:19;;;;;;;;;20.00;15.75;;;;;;;;5104477;27;61678;-89
2022/05/06 05:17:45;;;;;;;;;20.75;13.75;;;;;;;;5103647;27;61857;-90
2022/05/06 05:20:11;;;;;;;;;21.50;16.00;;;;;;;;5103819;27;62687;-90
2022/05/06 05:22:36;;;;;;;;;16.25;14.75;;;;;;;;5105450;27;61713;-90
2022/05/06 05:25:03;;;;;;;;;16.50;13.25;;;;;;;;5104369;27;61897;-90
2022/05/06 05:27:29;;;;;;;;;18.75;16.25;;;;;;;;5103766;27;61825;-91
2022/05/06 05:29:54;;;;;;;;;18.25;16.25;;;;;;;;5097048;27;61730;-90
2022/05/06 05:32:19;;;;;;;;;16.25;14.00;;;;;;;;5104760;27;61798;-90
2022/05/06 05:34:46;;;;;;;;;17.50;13.50;;;;;;;;5104488;27;62003;-90
2022/05/06 05:37:11;;;;;;;;;18.00;14.75;;;;;;;;5104793;27;62075;-90
2022/05/06 05:39:37;;;;;;;;;19.00;13.75;;;;;;;;5101969;27;62021;-90
2022/05/06 05:42:05;;;;;;;;;17.25;13.00;;;;;;;;5105463;27;61676;-90
2022/05/06 05:49:58;;;;;;;;;14.25;14.00;;;;;;;;5104472;27;61924;-90
2022/05/06 05:52:23;;;;;;;;;17.25;12.50;;;;;;;;5102700;27;61903;-89
2022/05/06 05:54:48;;;;;;;;;15.50;12.25;;;;;;;;5101633;27;61886;-90
2022/05/06 05:57:14;;;;;;;;;17.50;12.00;;;;;;;;5098873;27;61949;-90
2022/05/06 05:59:40;;;;;;;;;12.75;11.50;;;;;;;;5102859;27;61806;-80
2022/05/06 06:02:06;;;;;;;;;14.00;13.50;;;;;;;;5103117;27;62133;-87
2022/05/06 06:04:32;;;;;;;;;13.25;10.75;;;;;;;;5100913;27;64169;-82
2022/05/06 06:06:57;;;;;;;;;14.25;8.25;;;;;;;;5101249;27;62080;-78
2022/05/06 06:09:23;;;;;;;;;15.25;12.00;;;;;;;;5103756;27;62110;-78
2022/05/06 06:11:49;;;;;;;;;11.75;11.25;;;;;;;;5104114;27;62120;-78
2022/05/06 06:14:15;;;;;;;;;15.25;12.75;;;;;;;;5102377;27;63846;-78
2022/05/06 06:16:40;;;;;;;;;22.75;15.50;;;;;;;;5103648;27;62009;-82
2022/05/06 06:19:06;;;;;;;;;14.00;10.00;;;;;;;;5103905;27;61880;-78
2022/05/06 06:21:31;;;;;;;;;16.75;12.50;;;;;;;;5104182;27;61874;-78
2022/05/06 06:23:56;;;;;;;;;15.25;14.00;;;;;;;;5093767;27;63714;-77
2022/05/06 06:26:22;;;;;;;;;18.50;15.25;;;;;;;;5101290;27;61794;-78
2022/05/06 06:28:47;;;;;;;;;12.50;11.75;;;;;;;;5101974;27;61888;-78
2022/05/06 06:31:12;;;;;;;;;18.75;14.50;;;;;;;;5103413;27;62139;-77
2022/05/06 06:33:38;;;;;;;;;18.00;14.25;;;;;;;;5102666;27;61848;-77
2022/05/06 06:36:06;;;;;;;;;20.25;16.25;;;;;;;;5103908;27;61855;-77
2022/05/06 06:38:32;;;;;;;;;19.00;16.75;;;;;;;;5102896;27;61947;-76
2022/05/06 06:40:59;;;;;;;;;17.50;10.75;;;;;;;;5103308;27;61734;-77
2022/05/06 06:43:25;;;;;;;;;17.75;15.75;;;;;;;;5103074;27;62534;-77
2022/05/06 06:45:50;;;;;;;;;20.00;13.75;;;;;;;;5103237;27;61971;-77
2022/05/06 06:48:16;;;;;;;;;12.50;12.50;;;;;;;;5103147;27;62015;-77
2022/05/06 06:50:41;;;;;;;;;16.25;11.00;;;;;;;;5102289;27;61861;-77
2022/05/06 06:53:06;;;;;;;;;13.75;10.00;;;;;;;;5103082;27;61957;-78
2022/05/06 06:55:32;;;;;;;;;15.75;15.00;;;;;;;;5102971;27;61879;-82
2022/05/06 06:57:57;;;;;;;;;16.00;12.00;;;;;;;;5103671;27;61965;-76
2022/05/06 07:00:22;;;;;;;;;16.00;14.50;;;;;;;;5103316;27;62363;-77
2022/05/06 07:02:48;;;;;;;;;18.75;16.25;;;;;;;;5100965;27;63793;-76
2022/05/06 07:05:13;;;;;;;;;17.50;13.50;;;;;;;;5103070;27;61714;-77
2022/05/06 07:13:06;;;;;;;;;23.00;15.75;;;;;;;;5102066;27;61991;-75
2022/05/06 07:15:32;;;;;;;;;16.25;11.25;;;;;;;;5102859;27;61908;-74
2022/05/06 07:17:58;;;;;;;;;15.75;12.75;;;;;;;;5101183;27;61699;-76
2022/05/06 07:20:23;;;;;;;;;25.00;16.50;;;;;;;;5103412;27;61722;-77
2022/05/06 07:22:49;;;;;;;;;18.25;14.00;;;;;;;;5101045;27;62882;-76
2022/05/06 07:25:14;;;;;;;;;19.00;12.25;;;;;;;;5101026;27;61871;-80
2022/05/06 07:27:39;;;;;;;;;18.25;13.00;;;;;;;;5102057;27;61854;-83
2022/05/06 07:30:06;;;;;;;;;18.00;15.75;;;;;;;;5102117;27;61683;-81
2022/05/06 07:32:32;;;;;;;;;22.50;16.25;;;;;;;;5101467;27;62420;-80
2022/05/06 07:34:57;;;;;;;;;24.50;16.00;;;;;;;;5101791;27;61820;-81
2022/05/06 07:37:24;;;;;;;;;17.75;15.00;;;;;;;;5101037;27;61756;-80
2022/05/06 07:39:53;;;;;;;;;24.50;17.50;;;;;;;;5099914;27;62408;-80
2022/05/06 07:42:18;;;;;;;;;17.25;15.25;;;;;;;;5101132;27;62862;-81
2022/05/06 07:44:47;;;;;;;;;15.00;11.50;;;;;;;;5100525;27;61972;-81
2022/05/06 07:47:12;;;;;;;;;15.25;13.75;;;;;;;;5098748;27;62267;-81
2022/05/06 07:49:37;;;;;;;;;16.25;12.00;;;;;;;;5100046;27;61786;-80
2022/05/06 07:52:03;;;;;;;;;19.00;13.00;;;;;;;;5098776;27;62075;-78
2022/05/06 07:54:28;;;;;;;;;15.50;11.75;;;;;;;;5099829;27;61952;-79
2022/05/06 07:56:53;;;;;;;;;19.75;11.25;;;;;;;;5100403;27;62016;-79
2022/05/06 07:59:18;;;;;;;;;19.75;15.00;;;;;;;;5099540;27;61802;-78
2022/05/06 08:04:34;;;;;;;;;17.25;13.00;;;;;;;;5103110;27;61879;-76
2022/05/06 08:07:00;;;;;;;;;16.00;11.25;;;;;;;;5104238;27;61913;-79
2022/05/06 08:09:25;;;;;;;;;14.75;12.25;;;;;;;;5105216;27;62156;-79
2022/05/06 08:11:50;;;;;;;;;16.75;13.75;;;;;;;;5101554;27;63703;-79
2022/05/06 08:14:16;;;;;;;;;14.25;13.75;;;;;;;;5106472;27;61743;-75
2022/05/06 08:16:42;;;;;;;;;22.75;13.75;;;;;;;;5105638;27;61759;-79
2022/05/06 08:19:07;;;;;;;;;16.25;11.00;;;;;;;;5104873;27;62105;-78
2022/05/06 08:21:33;;;;;;;;;16.25;13.50;;;;;;;;5101685;27;63902;-78
2022/05/06 08:23:58;;;;;;;;;16.75;13.75;;;;;;;;5103649;27;61838;-78
2022/05/06 08:26:23;;;;;;;;;16.25;11.00;;;;;;;;5103597;27;62097;-77
2022/05/06 08:28:48;;;;;;;;;17.75;14.00;;;;;;;;5105072;27;61906;-78
2022/05/06 08:31:14;;;;;;;;;13.50;11.50;;;;;;;;5102944;27;62177;-78
2022/05/06 08:33:39;;;;;;;;;16.75;15.75;;;;;;;;5104398;27;62023;-78
2022/05/06 08:36:05;;;;;;;;;13.75;12.25;;;;;;;;5102858;27;61913;-76
2022/05/06 08:38:30;;;;;;;;;12.50;8.25;;;;;;;;5104540;27;61723;-80
2022/05/06 08:40:56;;;;;;;;;8.50;8.50;;;;;;;;5101460;27;62583;-78
2022/05/06 08:43:22;;;;;;;;;10.25;7.00;;;;;;;;5104493;27;61843;-78
2022/05/06 08:51:19;;;;;;;;;9.75;6.50;;;;;;;;5103665;27;62331;-78
2022/05/06 08:53:45;;;;;;;;;12.75;9.00;;;;;;;;5101531;27;61799;-78
2022/05/06 08:56:10;;;;;;;;;9.00;8.50;;;;;;;;5103460;27;61937;-78
2022/05/06 08:58:37;;;;;;;;;8.25;6.25;;;;;;;;5103351;27;61894;-77
2022/05/06 09:01:06;;;;;;;;;12.00;8.75;;;;;;;;5103536;27;61764;-77
2022/05/06 09:03:31;;;;;;;;;12.50;6.75;;;;;;;;5104077;27;62303;-81
2022/05/06 09:05:58;;;;;;;;;8.50;8.00;;;;;;;;5103688;27;62536;-80
2022/05/06 09:08:33;;;;;;;;;9.00;5.50;;;;;;;;5103236;27;62084;-81
2022/05/06 09:11:08;;;;;;;;;6.75;4.75;;;;;;;;5101637;27;64991;-82
2022/05/06 09:13:59;;;;;;;;;9.25;6.00;;;;;;;;5102696;27;61841;-77
2022/05/06 09:16:41;;;;;;;;;6.00;6.00;;;;;;;;5102090;27;61837;-77
2022/05/06 09:19:28;;;;;;;;;4.50;3.75;;;;;;;;5103449;27;61850;-76
2022/05/06 09:22:06;;;;;;;;;5.00;5.00;;;;;;;;5102060;27;64141;-76
2022/05/06 09:24:33;;;;;;;;;4.75;4.75;;;;;;;;5101881;27;62094;-76
2022/05/06 09:27:03;;;;;;;;;5.25;5.25;;;;;;;;5105020;27;61982;-76
2022/05/06 09:29:29;;;;;;;;;4.00;2.75;;;;;;;;5105994;27;62024;-76
2022/05/06 09:31:56;;;;;;;;;4.50;4.50;;;;;;;;5103376;27;61902;-76
2022/05/06 09:34:26;;;;;;;;;4.25;4.00;;;;;;;;5104526;27;62168;-76
2022/05/06 09:36:51;;;;;;;;;3.50;3.00;;;;;;;;5104948;27;61741;-77
2022/05/06 09:39:16;;;;;;;;;2.00;2.00;;;;;;;;5104603;27;61653;-80
2022/05/06 09:41:42;;;;;;;;;4.75;3.50;;;;;;;;5099911;27;61935;-79
2022/05/06 09:44:08;;;;;;;;;6.25;5.00;;;;;;;;5098995;27;61898;-78
2022/05/06 09:46:35;;;;;;;;;8.25;4.25;;;;;;;;5109423;27;61814;-79
2022/05/06 09:49:01;;;;;;;;;4.75;4.00;;;;;;;;5103077;27;61872;-79
2022/05/06 09:51:28;;;;;;;;;4.00;3.50;;;;;;;;5107801;27;61829;-76
2022/05/06 09:53:54;;;;;;;;;5.00;3.00;;;;;;;;5104997;27;62021;-77
2022/05/06 09:56:19;;;;;;;;;4.50;3.25;;;;;;;;5102258;27;61718;-76
2022/05/06 09:58:45;;;;;;;;;4.00;4.00;;;;;;;;5104048;27;61676;-78
2022/05/06 10:01:11;;;;;;;;;3.50;3.25;;;;;;;;5103196;27;62687;-80
2022/05/06 10:03:37;;;;;;;;;4.75;3.25;;;;;;;;5101959;27;61809;-78
2022/05/06 10:06:04;;;;;;;;;4.75;4.00;;;;;;;;5104036;27;61945;-78
2022/05/06 10:08:30;;;;;;;;;6.25;5.50;;;;;;;;5101145;27;61900;-78
2022/05/06 10:10:58;;;;;;;;;3.50;3.50;;;;;;;;5103339;27;62096;-77
2022/05/06 10:13:26;;;;;;;;;4.25;4.00;;;;;;;;5102865;27;61882;-79
2022/05/06 10:15:52;;;;;;;;;7.25;5.50;;;;;;;;5100411;27;62131;-82
2022/05/06 10:18:31;;;;;;;;;3.25;3.25;;;;;;;;5101038;27;62149;-79
2022/05/06 10:20:56;;;;;;;;;3.75;3.00;;;;;;;;5101046;27;62882;-76
2022/05/06 10:23:24;;;;;;;;;5.75;2.50;;;;;;;;5100192;27;62331;-79
2022/05/06 10:25:52;;;;;;;;;5.50;4.25;;;;;;;;5101938;27;61894;-75
2022/05/06 10:34:11;;;;;;;;;6.00;5.00;;;;;;;;5058087;28;62190;-74
2022/05/06 10:36:43;;;;;;;;;6.00;4.00;;;;;;;;5059966;28;61869;-75
2022/05/06 10:39:18;;;;;;;;;4.00;4.00;;;;;;;;5043947;28;62133;-76
2022/05/06 10:42:01;;;;;;;;;6.25;4.00;;;;;;;;5059850;28;61882;-76
2022/05/06 10:44:37;;;;;;;;;7.50;6.00;;;;;;;;5060028;28;62465;-75
2022/05/06 10:47:03;;;;;;;;;7.25;5.50;;;;;;;;5060297;28;62126;-75
2022/05/06 10:49:34;;;;;;;;;4.00;4.00;;;;;;;;5043944;28;61915;-77
2022/05/06 10:52:11;;;;;;;;;4.50;3.00;;;;;;;;5059472;28;62096;-77
2022/05/06 10:54:37;;;;;;;;;4.75;4.00;;;;;;;;5059009;28;61942;-78
2022/05/06 10:57:06;;;;;;;;;7.00;4.00;;;;;;;;5059558;28;61952;-76
2022/05/06 10:59:49;;;;;;;;;4.00;4.00;;;;;;;;5060512;28;61948;-77
2022/05/06 11:02:16;;;;;;;;;4.00;4.00;;;;;;;;5059482;28;61985;-76
2022/05/06 11:04:41;;;;;;;;;7.00;4.75;;;;;;;;5041662;28;61940;-75
2022/05/06 11:07:10;;;;;;;;;4.50;4.50;;;;;;;;5033793;28;62121;-77
2022/05/06 11:09:35;;;;;;;;;4.50;4.50;;;;;;;;5057808;28;62239;-77
2022/05/06 11:12:02;;;;;;;;;4.75;2.00;;;;;;;;5093602;27;63306;-75
2022/05/06 11:14:27;;;;;;;;;5.75;3.25;;;;;;;;5101783;27;62084;-74
2022/05/06 11:16:53;;;;;;;;;5.25;4.75;;;;;;;;5101738;27;62049;-74
2022/05/06 11:19:36;;;;;;;;;5.50;5.00;;;;;;;;5101782;27;61671;-74
2022/05/06 11:22:08;;;;;;;;;4.00;4.00;;;;;;;;5101556;27;63335;-74
2022/05/06 11:24:33;;;;;;;;;4.00;3.00;;;;;;;;5101641;27;61949;-74
2022/05/06 11:27:13;;;;;;;;;5.00;4.25;;;;;;;;5101893;27;61766;-76
2022/05/06 11:29:52;;;;;;;;;2.00;2.00;;;;;;;;5100194;27;61716;-73
2022/05/06 11:32:18;;;;;;;;;4.00;4.00;;;;;;;;5099021;27;63100;-74
2022/05/06 11:34:47;;;;;;;;;4.75;4.00;;;;;;;;5099201;27;61985;-75
2022/05/06 11:37:22;;;;;;;;;5.00;2.50;;;;;;;;5100753;27;62190;-73
2022/05/06 11:39:48;;;;;;;;;4.00;2.50;;;;;;;;5100595;27;62055;-73
2022/05/06 11:42:20;;;;;;;;;4.50;3.50;;;;;;;;5101324;27;62195;-73
2022/05/06 11:47:42;;;;;;;;;3.50;2.50;;;;;;;;5100855;27;61865;-73
2022/05/06 11:50:08;;;;;;;;;3.00;3.00;;;;;;;;5101638;27;62075;-72
2022/05/06 11:52:33;;;;;;;;;2.00;2.00;;;;;;;;5101740;27;63020;-72
2022/05/06 11:54:59;;;;;;;;;2.75;2.75;;;;;;;;5100369;27;61965;-74
2022/05/06 11:57:25;;;;;;;;;3.00;3.00;;;;;;;;5100781;27;62069;-76
2022/05/06 11:59:50;;;;;;;;;5.25;2.75;;;;;;;;5102160;27;61909;-76
2022/05/06 12:02:16;;;;;;;;;3.00;3.00;;;;;;;;5101180;27;61870;-78
2022/05/06 12:04:42;;;;;;;;;1.50;1.50;;;;;;;;5100175;27;62335;-76
2022/05/06 12:07:07;;;;;;;;;1.67;1.67;;;;;;;;5100206;27;61936;-74
2022/05/06 12:09:41;;;;;;;;;3.00;2.00;;;;;;;;5099269;27;61922;-77
2022/05/06 12:12:10;;;;;;;;;1.33;1.33;;;;;;;;5097342;27;62867;-76
2022/05/06 12:14:36;;;;;;;;;0.67;0.67;;;;;;;;5101244;27;61963;-76
2022/05/06 12:17:03;;;;;;;;;2.00;2.00;;;;;;;;5100858;27;61736;-75
2022/05/06 12:19:36;;;;;;;;;1.67;1.67;;;;;;;;5101285;27;62027;-76
2022/05/06 12:22:15;;;;;;;;;1.00;1.00;;;;;;;;5100686;27;62659;-76
2022/05/06 12:24:45;;;;;;;;;2.67;1.67;;;;;;;;5100171;27;61860;-76
2022/05/06 12:27:11;;;;;;;;;1.00;1.00;;;;;;;;5100933;27;61912;-76
2022/05/06 12:29:40;;;;;;;;;1.33;1.33;;;;;;;;5099501;27;61731;-76
2022/05/06 12:32:06;;;;;;;;;2.00;2.00;;;;;;;;5100024;27;61790;-76
2022/05/06 12:34:31;;;;;;;;;0.67;0.67;;;;;;;;5100446;27;61732;-76
2022/05/06 12:37:13;;;;;;;;;0.67;0.67;;;;;;;;5099802;27;61975;-76
2022/05/06 12:39:40;;;;;;;;;1.00;1.00;;;;;;;;5100263;27;61794;-76
2022/05/06 12:42:12;;;;;;;;;2.00;2.00;;;;;;;;5100309;27;62604;-76
2022/05/06 12:44:38;;;;;;;;;0.00;0.00;;;;;;;;5100508;27;61990;-76
2022/05/06 12:50:03;;;;;;;;;0.00;0.00;;;;;;;;5103813;27;61758;-76
2022/05/06 12:52:31;;;;;;;;;1.33;1.33;;;;;;;;5102454;27;64651;-76
2022/05/06 12:54:56;;;;;;;;;1.67;1.00;;;;;;;;5104225;27;62687;-76
2022/05/06 12:57:23;;;;;;;;;1.33;1.33;;;;;;;;5103980;27;61894;-76
2022/05/06 12:59:49;;;;;;;;;0.00;0.00;;;;;;;;5103396;27;61956;-75
2022/05/06 13:02:15;;;;;;;;;1.00;1.00;;;;;;;;5103899;27;62070;-76
2022/05/06 13:04:40;;;;;;;;;0.67;0.67;;;;;;;;5104498;27;61803;-76
2022/05/06 13:07:05;;;;;;;;;0.00;0.00;;;;;;;;5104999;27;62063;-77
2022/05/06 13:09:31;;;;;;;;;0.67;0.67;;;;;;;;5103951;27;61852;-76
2022/05/06 13:11:56;;;;;;;;;0.00;0.00;;;;;;;;5103966;27;61805;-79
2022/05/06 13:14:22;;;;;;;;;0.33;0.00;;;;;;;;5104886;27;61804;-76
2022/05/06 13:16:47;;;;;;;;;0.00;0.00;;;;;;;;5104044;27;61946;-78
2022/05/06 13:19:13;;;;;;;;;2.00;2.00;;;;;;;;5105189;27;61734;-75
2022/05/06 13:21:38;;;;;;;;;0.33;0.33;;;;;;;;5103997;27;61801;-76
2022/05/06 13:24:04;;;;;;;;;0.00;0.00;;;;;;;;5104392;27;61844;-76
2022/05/06 13:26:29;;;;;;;;;1.00;0.00;;;;;;;;5099708;27;62348;-77
2022/05/06 13:28:55;;;;;;;;;1.00;1.00;;;;;;;;5101700;27;62115;-75
2022/05/06 13:31:20;;;;;;;;;0.00;0.00;;;;;;;;5100013;27;62113;-82
2022/05/06 13:33:47;;;;;;;;;0.00;0.00;;;;;;;;5100226;27;61695;-76
2022/05/06 13:36:12;;;;;;;;;0.00;0.00;;;;;;;;5103490;27;61943;-75
2022/05/06 13:38:38;;;;;;;;;0.00;0.00;;;;;;;;5102491;27;61911;-75
2022/05/06 13:41:03;;;;;;;;;3.33;0.67;;;;;;;;5101170;27;62008;-75
2022/05/06 13:43:29;;;;;;;;;0.67;0.67;;;;;;;;5103336;27;61824;-75
2022/05/06 13:45:55;;;;;;;;;0.00;0.00;;;;;;;;5101540;27;62278;-76
2022/05/06 13:48:20;;;;;;;;;2.00;1.00;;;;;;;;5102657;27;62540;-73
2022/05/06 13:50:45;;;;;;;;;0.00;0.00;;;;;;;;5102212;27;61782;-74
2022/05/06 13:53:10;;;;;;;;;0.67;0.67;;;;;;;;5103056;27;61786;-74
2022/05/06 14:01:03;;;;;;;;;1.67;0.33;;;;;;;;5102495;27;62338;-74
2022/05/06 14:03:29;;;;;;;;;1.33;1.00;;;;;;;;5103173;27;62328;-74
2022/05/06 14:05:54;;;;;;;;;0.00;0.00;;;;;;;;5102617;27;61929;-74
2022/05/06 14:08:19;;;;;;;;;0.33;0.33;;;;;;;;5102862;27;61891;-74
2022/05/06 14:10:45;;;;;;;;;0.00;0.00;;;;;;;;5102122;27;62230;-75
2022/05/06 14:13:10;;;;;;;;;1.67;0.67;;;;;;;;5102674;27;61865;-74
2022/05/06 14:15:35;;;;;;;;;1.00;1.00;;;;;;;;5100007;27;62060;-74
2022/05/06 14:18:00;;;;;;;;;2.00;2.00;;;;;;;;5101050;27;62488;-74
2022/05/06 14:20:26;;;;;;;;;1.67;1.67;;;;;;;;5101698;27;62791;-74
2022/05/06 14:22:51;;;;;;;;;2.33;0.67;;;;;;;;5101920;27;62329;-74
2022/05/06 14:25:17;;;;;;;;;0.33;0.33;;;;;;;;5100400;27;61956;-74
2022/05/06 14:27:44;;;;;;;;;1.00;0.00;;;;;;;;5099407;27;62005;-75
2022/05/06 14:30:10;;;;;;;;;2.00;1.00;;;;;;;;5101087;27;62550;-75
2022/05/06 14:32:36;;;;;;;;;0.67;0.67;;;;;;;;5102202;27;62018;-75
2022/05/06 14:35:16;;;;;;;;;0.00;0.00;;;;;;;;5101580;27;62069;-74
2022/05/06 14:37:47;;;;;;;;;0.33;0.33;;;;;;;;5102287;27;61945;-74
2022/05/06 14:40:12;;;;;;;;;1.00;1.00;;;;;;;;5099735;27;61884;-74
2022/05/06 14:42:37;;;;;;;;;1.67;0.67;;;;;;;;5100234;27;62011;-74
2022/05/06 14:45:03;;;;;;;;;0.00;0.00;;;;;;;;5102003;27;62267;-80
2022/05/06 14:47:28;;;;;;;;;0.00;0.00;;;;;;;;5102018;27;62566;-76
2022/05/06 14:49:53;;;;;;;;;0.00;0.00;;;;;;;;5101499;27;62610;-74
2022/05/06 14:52:23;;;;;;;;;2.33;0.67;;;;;;;;5102042;27;62083;-73
2022/05/06 14:54:51;;;;;;;;;1.67;1.67;;;;;;;;5102717;27;61866;-73
2022/05/06 14:57:16;;;;;;;;;1.33;0.33;;;;;;;;5102511;27;62132;-74
2022/05/06 14:59:41;;;;;;;;;0.33;0.33;;;;;;;;5102953;27;62719;-75
2022/05/06 15:02:07;;;;;;;;;0.00;0.00;;;;;;;;5103576;27;61770;-74
2022/05/06 15:04:32;;;;;;;;;0.00;0.00;;;;;;;;5103425;27;61848;-74
2022/05/06 15:06:57;;;;;;;;;0.00;0.00;;;;;;;;5101603;27;61772;-77
2022/05/06 15:09:23;;;;;;;;;0.67;0.67;;;;;;;;5100254;27;64389;-74
2022/05/06 15:11:48;;;;;;;;;0.00;0.00;;;;;;;;5102778;27;61864;-75
2022/05/06 15:14:13;;;;;;;;;0.00;0.00;;;;;;;;5103809;27;62004;-75